Time;durP1;ratioP1;P1;durP2;ratioP2;P2;SDS_P1;SDS_P2;PMS_P1;PMS_P2;Temp;Humidity;BMP_temperature;BMP_pressure;BME280_temperature;BME280_humidity;BME280_pressure;Samples;Min_cycle;Max_cycle;Signal;HPM_P1;HPM_P2
2022/08/17 00:00:15;;;;;;;5.82;3.17;;;;;;;21.21;59.33;98626.41;4498226;31;35312;-79
2022/08/17 00:03:20;;;;;;;6.03;3.37;;;;;;;21.12;59.60;98632.31;4500251;31;34586;-80
2022/08/17 00:05:56;;;;;;;6.07;2.80;;;;;;;20.80;60.54;98632.62;4498743;31;33464;-80
2022/08/17 00:08:28;;;;;;;5.10;3.15;;;;;;;20.78;60.34;98631.88;4501355;31;34081;-78
2022/08/17 00:10:57;;;;;;;5.20;3.17;;;;;;;21.16;59.35;98628.50;4499447;31;35059;-80
2022/08/17 00:13:34;;;;;;;5.12;3.15;;;;;;;21.28;58.96;98627.72;4499975;31;35203;-81
2022/08/17 00:16:10;;;;;;;4.95;2.90;;;;;;;21.35;58.79;98629.03;4500250;31;33429;-80
2022/08/17 00:18:38;;;;;;;6.82;3.33;;;;;;;21.11;59.86;98623.53;4499893;31;34695;-80
2022/08/17 00:21:27;;;;;;;6.25;3.40;;;;;;;21.16;59.49;98623.22;4500287;31;35213;-79
2022/08/17 00:24:16;;;;;;;6.35;3.17;;;;;;;20.88;60.48;98629.47;4498885;31;34904;-80
2022/08/17 00:26:44;;;;;;;6.07;3.65;;;;;;;20.80;60.79;98617.56;4498821;31;34213;-80
2022/08/17 00:29:12;;;;;;;4.93;3.40;;;;;;;20.97;59.89;98624.44;4502294;31;34706;-80
2022/08/17 00:31:47;;;;;;;5.97;3.28;;;;;;;21.18;59.55;98616.88;4501847;31;35832;-80
2022/08/17 00:34:15;;;;;;;5.90;3.20;;;;;;;21.23;59.38;98623.66;4500355;31;35313;-77
2022/08/17 00:36:43;;;;;;;5.82;3.40;;;;;;;21.11;59.78;98623.53;4502866;31;34220;-80
2022/08/17 00:39:11;;;;;;;5.75;3.58;;;;;;;21.28;59.15;98625.06;4483254;32;33140;-80
2022/08/17 00:41:39;;;;;;;6.97;3.72;;;;;;;20.96;59.92;98628.03;4502070;31;34843;-79
2022/08/17 00:44:10;;;;;;;6.62;3.80;;;;;;;20.92;60.83;98634.47;4501932;31;34537;-80
2022/08/17 00:46:41;;;;;;;6.18;3.70;;;;;;;20.75;61.70;98637.34;4486998;31;31955;-78
2022/08/17 00:49:11;;;;;;;6.45;3.83;;;;;;;21.70;58.30;98635.56;4488679;31;34696;-78
2022/08/17 00:51:53;;;;;;;6.30;4.00;;;;;;;21.34;59.09;98635.25;4500141;31;34392;-79
2022/08/17 00:54:26;;;;;;;5.18;3.30;;;;;;;21.42;59.14;98634.75;4499642;31;34462;-77
2022/08/17 00:57:01;;;;;;;6.18;3.47;;;;;;;21.69;58.10;98629.44;4498744;31;34318;-78
2022/08/17 00:59:33;;;;;;;6.57;3.67;;;;;;;21.16;59.73;98631.16;4491705;31;34718;-77
2022/08/17 01:02:03;;;;;;;5.95;3.70;;;;;;;21.43;59.04;98632.97;4486361;31;35159;-77
2022/08/17 01:04:32;;;;;;;6.28;3.47;;;;;;;21.13;59.87;98637.53;4490137;31;34292;-77
2022/08/17 01:07:01;;;;;;;6.47;3.40;;;;;;;21.16;59.68;98634.69;4502527;31;33400;-77
2022/08/17 01:09:30;;;;;;;6.40;3.85;;;;;;;21.10;60.24;98639.53;4490783;31;34010;-77
2022/08/17 01:11:58;;;;;;;6.18;3.65;;;;;;;21.00;60.23;98642.78;4485539;32;35048;-78
2022/08/17 01:14:26;;;;;;;5.72;3.50;;;;;;;20.95;60.43;98636.94;4486685;32;34506;-77
2022/08/17 01:16:56;;;;;;;6.45;3.65;;;;;;;20.94;60.52;98637.88;4485464;32;34256;-78
2022/08/17 01:19:27;;;;;;;9.10;3.85;;;;;;;20.78;61.02;98645.09;4485508;32;33958;-78
2022/08/17 01:22:10;;;;;;;5.35;3.50;;;;;;;20.83;61.05;98649.16;4486709;32;35903;-78
2022/08/17 01:24:41;;;;;;;6.12;3.70;;;;;;;20.69;61.37;98645.69;4486779;31;34442;-78
2022/08/17 01:27:12;;;;;;;5.22;3.42;;;;;;;20.33;62.46;98649.66;4498367;31;33548;-78
2022/08/17 01:29:44;;;;;;;7.72;3.85;;;;;;;20.24;63.01;98646.66;4485534;32;33943;-78
2022/08/17 01:32:13;;;;;;;6.32;3.65;;;;;;;20.61;61.69;98649.69;4485534;32;35925;-78
2022/08/17 01:34:42;;;;;;;7.12;3.40;;;;;;;20.25;62.67;98648.31;4485375;32;34433;-78
2022/08/17 01:37:18;;;;;;;;;;;;;;;21.11;59.93;98649.19;4486944;32;33439;-78
2022/08/17 01:39:55;;;;;;;7.40;3.35;;;;;;;20.55;61.62;98650.00;4486358;32;34046;-78
2022/08/17 01:42:36;;;;;;;6.72;4.12;;;;;;;21.08;60.29;98641.44;4489418;31;35707;-77
2022/08/17 01:45:12;;;;;;;7.93;3.83;;;;;;;20.92;60.89;98646.88;4501382;31;35059;-77
2022/08/17 01:47:40;;;;;;;5.62;3.35;;;;;;;20.94;60.71;98653.75;4501161;31;33559;-78
2022/08/17 01:50:14;;;;;;;6.22;3.97;;;;;;;20.70;61.54;98648.25;4502287;31;33833;-78
2022/08/17 01:52:44;;;;;;;5.68;3.83;;;;;;;20.39;62.43;98652.75;4502096;31;34815;-77
2022/08/17 01:55:15;;;;;;;6.80;3.87;;;;;;;21.00;60.36;98653.38;4502106;31;34533;-77
2022/08/17 01:57:46;;;;;;;11.00;4.15;;;;;;;20.63;61.41;98647.78;4501127;31;33624;-80
2022/08/17 02:00:14;;;;;;;6.30;3.70;;;;;;;20.56;61.93;98657.00;4500449;31;34656;-78
2022/08/17 02:02:44;;;;;;;6.22;3.75;;;;;;;20.57;62.02;98653.41;4500966;31;35085;-78
2022/08/17 02:05:12;;;;;;;7.37;4.40;;;;;;;20.63;62.02;98661.00;4502188;31;34437;-77
2022/08/17 02:07:41;;;;;;;6.35;3.53;;;;;;;21.49;59.30;98653.75;4500831;31;34201;-78
2022/08/17 02:10:29;;;;;;;13.20;4.25;;;;;;;21.11;60.47;98659.75;4502357;31;34698;-77
2022/08/17 02:13:03;;;;;;;8.57;3.85;;;;;;;20.78;61.75;98653.03;4500935;31;35656;-78
2022/08/17 02:15:32;;;;;;;7.00;3.50;;;;;;;20.88;61.29;98640.91;4500939;31;34538;-79
2022/08/17 02:18:02;;;;;;;7.57;3.97;;;;;;;21.36;59.44;98651.06;4501284;31;32365;-78
2022/08/17 02:20:30;;;;;;;6.25;4.03;;;;;;;21.81;57.54;98648.09;4500747;31;33775;-77
2022/08/17 02:23:11;;;;;;;6.40;3.65;;;;;;;21.64;57.93;98647.44;4500968;31;34389;-78
2022/08/17 02:25:42;;;;;;;10.15;3.62;;;;;;;21.20;59.39;98636.16;4500814;31;34490;-78
2022/08/17 02:28:11;;;;;;;6.07;3.95;;;;;;;21.28;59.02;98638.31;4502346;31;33572;-78
2022/08/17 02:30:39;;;;;;;7.97;3.83;;;;;;;20.99;59.76;98641.06;4501808;31;34097;-78
2022/08/17 02:33:27;;;;;;;6.72;4.15;;;;;;;21.33;58.81;98640.66;4489458;31;34380;-78
2022/08/17 02:36:11;;;;;;;5.97;3.65;;;;;;;21.33;58.71;98644.13;4500952;31;35268;-78
2022/08/17 02:38:40;;;;;;;5.43;3.22;;;;;;;21.06;59.57;98646.81;4500743;31;33664;-77
2022/08/17 02:41:08;;;;;;;6.95;3.37;;;;;;;20.89;60.02;98642.59;4500622;31;34685;-78
2022/08/17 02:43:35;;;;;;;6.85;4.10;;;;;;;20.80;60.85;98648.50;4500788;31;35747;-78
2022/08/17 02:46:04;;;;;;;7.43;4.18;;;;;;;20.22;62.69;98648.53;4502136;31;34509;-78
2022/08/17 02:48:32;;;;;;;6.00;3.40;;;;;;;20.79;60.48;98644.16;4500643;31;34266;-77
2022/08/17 02:51:00;;;;;;;6.53;3.85;;;;;;;20.60;60.87;98634.69;4500400;31;33915;-78
2022/08/17 02:53:30;;;;;;;8.02;4.43;;;;;;;20.40;61.60;98645.66;4501727;31;34603;-78
2022/08/17 02:56:03;;;;;;;6.55;3.67;;;;;;;20.18;62.61;98641.72;4500753;31;34389;-78
2022/08/17 02:58:31;;;;;;;6.80;4.20;;;;;;;20.27;62.60;98641.16;4501867;31;33449;-78
2022/08/17 03:01:07;;;;;;;6.50;4.15;;;;;;;20.15;63.04;98646.34;4501463;31;34747;-78
2022/08/17 03:03:36;;;;;;;7.10;4.20;;;;;;;19.89;64.03;98643.50;4500680;31;34975;-78
2022/08/17 03:06:04;;;;;;;5.60;3.53;;;;;;;20.03;63.59;98648.81;4500545;31;34569;-77
2022/08/17 03:08:33;;;;;;;6.12;3.92;;;;;;;20.00;63.75;98653.44;4497650;31;34259;-79
2022/08/17 03:11:01;;;;;;;7.32;4.40;;;;;;;20.11;63.22;98644.84;4499498;31;34798;-80
2022/08/17 03:13:29;;;;;;;6.22;3.53;;;;;;;19.93;64.17;98660.03;4496864;31;35196;-77
2022/08/17 03:15:58;;;;;;;7.07;3.78;;;;;;;19.85;64.45;98660.47;4495275;31;35295;-78
2022/08/17 03:18:26;;;;;;;9.48;4.43;;;;;;;19.85;64.34;98661.34;4481687;31;33421;-79
2022/08/17 03:20:58;;;;;;;7.07;4.20;;;;;;;19.83;64.45;98667.63;4499511;31;33783;-79
2022/08/17 03:23:27;;;;;;;8.15;4.05;;;;;;;19.58;65.53;98657.66;4491597;31;35050;-79
2022/08/17 03:25:56;;;;;;;6.65;3.58;;;;;;;19.54;65.71;98659.63;4498086;31;34522;-80
2022/08/17 03:28:25;;;;;;;8.25;4.87;;;;;;;19.83;64.76;98667.63;4501019;31;33303;-80
2022/08/17 03:30:53;;;;;;;7.87;4.32;;;;;;;19.70;65.46;98656.94;4497995;31;34831;-79
2022/08/17 03:33:21;;;;;;;10.07;4.68;;;;;;;19.83;64.91;98663.19;4498482;31;36015;-80
2022/08/17 03:35:50;;;;;;;6.65;4.03;;;;;;;19.81;65.13;98667.72;4498477;31;34904;-79
2022/08/17 03:38:19;;;;;;;7.32;4.05;;;;;;;19.81;65.08;98664.25;4493157;31;33480;-79
2022/08/17 03:40:48;;;;;;;7.37;4.60;;;;;;;19.75;65.23;98659.31;4488907;31;34699;-79
2022/08/17 03:43:30;;;;;;;7.87;4.65;;;;;;;19.54;66.09;98662.25;4501422;31;35064;-80
2022/08/17 03:57:30;;;;;;;6.72;4.40;;;;;;;19.60;66.59;98667.16;4499865;31;33911;-80
2022/08/17 03:59:59;;;;;;;8.35;4.65;;;;;;;19.68;66.11;98672.88;4500883;31;34382;-79
2022/08/17 04:02:30;;;;;;;5.55;3.95;;;;;;;19.65;66.27;98669.56;4499850;31;33821;-79
2022/08/17 04:04:58;;;;;;;7.00;4.10;;;;;;;19.79;66.47;98668.78;4497693;31;36107;-78
2022/08/17 04:07:28;;;;;;;7.75;4.35;;;;;;;19.69;67.08;98678.97;4498555;31;35015;-80
2022/08/17 04:09:58;;;;;;;7.97;4.60;;;;;;;19.78;67.01;98670.53;4499975;31;33447;-80
2022/08/17 04:12:30;;;;;;;7.90;4.40;;;;;;;19.48;68.05;98676.69;4498490;31;33898;-80
2022/08/17 04:14:58;;;;;;;6.40;4.05;;;;;;;19.77;67.45;98684.72;4500036;31;35147;-80
2022/08/17 04:17:27;;;;;;;6.47;4.22;;;;;;;19.86;66.77;98686.81;4500082;31;35201;-78
2022/08/17 04:19:56;;;;;;;6.62;4.12;;;;;;;19.70;67.68;98694.75;4493504;31;34257;-79
2022/08/17 04:22:24;;;;;;;9.38;4.78;;;;;;;19.99;66.83;98689.56;4496692;31;34596;-79
2022/08/17 04:25:09;;;;;;;12.45;5.05;;;;;;;20.44;65.75;98689.50;4500633;31;35853;-80
2022/08/17 04:27:37;;;;;;;9.27;4.28;;;;;;;20.82;64.27;98694.22;4471020;31;34664;-80
2022/08/17 04:30:08;;;;;;;7.93;5.05;;;;;;;20.94;63.99;98690.78;4485224;32;34384;-78
2022/08/17 04:32:54;;;;;;;6.93;4.20;;;;;;;21.40;62.41;98687.81;4499568;31;33908;-78
2022/08/17 04:35:42;;;;;;;7.53;4.60;;;;;;;21.60;61.94;98691.00;4499679;31;35057;-79
2022/08/17 04:38:15;;;;;;;6.72;4.22;;;;;;;21.80;61.43;98694.94;4499880;31;34434;-79
2022/08/17 04:43:31;;;;;;;5.90;3.78;;;;;;;21.71;61.81;98693.78;4484949;31;34666;-78
2022/08/17 04:46:05;;;;;;;7.97;4.10;;;;;;;21.76;61.93;98691.66;4486314;31;35106;-78
2022/08/17 04:48:35;;;;;;;6.90;4.22;;;;;;;22.28;60.86;98691.72;4499557;31;34384;-79
2022/08/17 04:51:31;;;;;;;6.78;3.85;;;;;;;22.30;61.62;98689.81;4482199;32;33532;-80
2022/08/17 04:54:04;;;;;;;6.53;4.07;;;;;;;21.98;62.85;98692.84;4491792;31;32651;-79
2022/08/17 04:56:32;;;;;;;6.95;4.15;;;;;;;22.38;61.12;98691.94;4496299;31;35173;-79
2022/08/17 04:59:07;;;;;;;7.05;4.20;;;;;;;22.77;60.88;98690.94;4500257;31;34494;-78
2022/08/17 05:01:37;;;;;;;6.90;4.00;;;;;;;23.01;60.51;98693.62;4497421;31;33306;-78
2022/08/17 05:04:08;;;;;;;5.85;3.78;;;;;;;23.28;59.52;98704.06;4500410;31;33941;-80
2022/08/17 05:06:56;;;;;;;8.45;4.07;;;;;;;22.99;60.79;98715.94;4497681;31;35057;-80
2022/08/17 05:09:24;;;;;;;8.93;4.72;;;;;;;22.99;59.44;98713.28;4499397;31;35227;-80
2022/08/17 05:11:52;;;;;;;9.65;4.47;;;;;;;22.87;59.35;98721.19;4490674;31;34417;-80
2022/08/17 05:14:23;;;;;;;6.47;4.37;;;;;;;22.84;58.68;98726.69;4485772;32;34134;-79
2022/08/17 05:17:00;;;;;;;6.93;4.22;;;;;;;23.26;57.63;98721.94;4495983;31;35004;-79
2022/08/17 05:19:38;;;;;;;5.68;3.97;;;;;;;23.71;56.62;98726.63;4501569;31;34422;-78
2022/08/17 05:22:06;;;;;;;8.40;4.12;;;;;;;23.88;56.68;98725.38;4491812;31;34263;-81
2022/08/17 05:24:34;;;;;;;8.25;4.53;;;;;;;24.34;55.06;98724.53;4485618;32;33987;-81
2022/08/17 05:27:17;;;;;;;8.35;3.97;;;;;;;25.24;52.75;98722.81;4496587;31;34658;-81
2022/08/17 05:29:45;;;;;;;8.30;4.10;;;;;;;25.13;52.96;98727.19;4502485;31;34949;-80
2022/08/17 05:32:13;;;;;;;7.93;4.65;;;;;;;25.61;52.04;98719.81;4501658;31;33408;-80
2022/08/17 05:35:03;;;;;;;9.52;4.12;;;;;;;25.90;50.96;98726.22;4502446;31;34026;-80
2022/08/17 05:37:30;;;;;;;7.72;4.57;;;;;;;26.16;51.94;98720.53;4501625;31;35734;-81
2022/08/17 05:39:58;;;;;;;6.78;4.15;;;;;;;26.51;51.83;98722.00;4502324;31;34467;-81
2022/08/17 05:42:26;;;;;;;10.30;4.45;;;;;;;26.95;49.99;98727.97;4501336;31;34234;-84
2022/08/17 05:44:57;;;;;;;7.37;4.55;;;;;;;27.37;46.90;98722.47;4501535;31;34628;-82
2022/08/17 05:47:26;;;;;;;8.57;4.55;;;;;;;27.70;46.55;98725.72;4495515;31;34380;-79
2022/08/17 05:49:57;;;;;;;7.25;4.95;;;;;;;28.48;45.06;98728.28;4501234;31;33556;-83
2022/08/17 05:52:47;;;;;;;12.55;4.05;;;;;;;28.44;45.78;98729.59;4501024;31;32900;-82
2022/08/17 05:55:46;;;;;;;6.75;4.15;;;;;;;29.02;42.92;98735.75;4501112;31;34657;-83
2022/08/17 05:58:37;;;;;;;9.52;4.50;;;;;;;28.99;42.30;98728.81;4461527;31;840287;-82
2022/08/17 06:01:12;;;;;;;8.10;4.75;;;;;;;28.66;42.98;98730.25;4485103;32;34366;-82
2022/08/17 06:04:08;;;;;;;13.52;4.70;;;;;;;28.64;43.92;98733.06;4488895;31;33389;-83
2022/08/17 06:06:46;;;;;;;7.25;4.32;;;;;;;28.90;43.13;98733.22;4502105;31;33806;-83
2022/08/17 06:09:36;;;;;;;7.25;4.40;;;;;;;29.43;40.63;98733.53;4502374;31;35864;-82
2022/08/17 06:12:52;;;;;;;6.72;4.22;;;;;;;30.47;38.62;98732.94;4502143;31;34610;-82
2022/08/17 06:15:43;;;;;;;7.65;4.30;;;;;;;30.78;38.14;98732.44;4426773;32;33464;-82
2022/08/17 06:18:12;;;;;;;11.02;5.15;;;;;;;30.79;39.01;98732.25;4422025;32;34683;-83
2022/08/17 06:21:03;;;;;;;9.23;4.50;;;;;;;30.35;39.71;98728.81;4470494;31;34885;-82
2022/08/17 06:23:40;;;;;;;6.47;4.05;;;;;;;30.92;37.24;98736.34;4486205;32;35284;-82
2022/08/17 06:26:24;;;;;;;6.60;4.28;;;;;;;31.38;37.47;98734.19;4484095;32;33341;-81
2022/08/17 06:29:23;;;;;;;7.62;4.25;;;;;;;31.37;36.98;98736.00;4486154;32;33824;-83
2022/08/17 06:31:51;;;;;;;23.35;7.00;;;;;;;31.36;37.33;98733.47;4480909;31;35487;-83
2022/08/17 06:34:19;;;;;;;5.60;3.72;;;;;;;31.46;37.75;98734.19;4484944;32;34647;-84
2022/08/17 06:37:17;;;;;;;8.10;4.82;;;;;;;31.22;36.79;98740.38;4485006;32;33321;-81
2022/08/17 06:40:00;;;;;;;209.55;40.88;;;;;;;32.19;34.99;98751.47;4459787;31;33772;-81
2022/08/17 06:42:47;;;;;;;14.87;4.85;;;;;;;32.72;34.38;98748.34;4484879;32;35913;-81
2022/08/17 06:45:40;;;;;;;6.95;4.28;;;;;;;32.47;35.10;98751.94;4486098;32;35368;-82
2022/08/17 06:48:26;;;;;;;5.62;3.60;;;;;;;33.02;33.40;98754.78;4486795;31;33506;-82
2022/08/17 06:51:00;;;;;;;6.43;3.62;;;;;;;33.32;32.84;98758.59;4484987;32;33895;-82
2022/08/17 06:53:39;;;;;;;6.03;4.32;;;;;;;33.10;33.69;98764.72;4484971;32;35915;-82
2022/08/17 06:56:10;;;;;;;5.75;4.18;;;;;;;33.85;31.80;98764.19;4471851;32;34450;-83
2022/08/17 06:58:42;;;;;;;6.05;3.97;;;;;;;34.17;31.67;98760.34;4486083;32;33576;-83
2022/08/17 07:01:22;;;;;;;7.53;4.47;;;;;;;33.15;33.21;98765.06;4485806;32;33829;-83
2022/08/17 07:03:57;;;;;;;8.70;3.92;;;;;;;33.56;32.94;98771.06;4485962;32;35059;-83
2022/08/17 07:06:37;;;;;;;8.68;5.03;;;;;;;32.92;34.35;98762.28;4485257;31;35197;-82
2022/08/17 07:09:13;;;;;;;8.18;4.15;;;;;;;33.79;32.30;98760.31;4485986;32;33420;-83
2022/08/17 07:12:05;;;;;;;7.15;3.90;;;;;;;34.54;31.41;98764.09;4484324;31;33965;-81
2022/08/17 07:14:39;;;;;;;7.40;4.62;;;;;;;33.97;32.19;98767.28;4484711;32;35160;-83
2022/08/17 07:17:16;;;;;;;6.62;4.05;;;;;;;34.03;32.12;98755.75;4471657;32;34160;-83
2022/08/17 07:19:49;;;;;;;7.95;4.20;;;;;;;34.54;31.85;98760.56;4485815;32;33332;-82
2022/08/17 07:22:49;;;;;;;7.20;4.40;;;;;;;34.81;31.42;98767.19;4484718;31;34736;-83
2022/08/17 07:25:29;;;;;;;6.18;3.67;;;;;;;34.02;31.96;98764.03;4484452;32;35067;-83
2022/08/17 07:28:01;;;;;;;9.45;4.12;;;;;;;35.20;30.37;98757.09;4484535;32;34407;-80
2022/08/17 07:30:39;;;;;;;6.28;4.05;;;;;;;35.53;29.35;98760.22;4484409;32;32726;-81
2022/08/17 07:33:23;;;;;;;6.95;4.22;;;;;;;34.40;31.51;98762.22;4484563;32;34075;-81
2022/08/17 07:35:52;;;;;;;8.30;4.15;;;;;;;33.70;32.10;98761.41;4485153;32;35758;-80
2022/08/17 07:38:29;;;;;;;5.90;4.03;;;;;;;34.96;29.85;98766.34;4471629;32;35079;-80
2022/08/17 07:41:01;;;;;;;7.40;4.70;;;;;;;34.60;30.71;98761.66;4492300;31;34259;-81
2022/08/17 07:43:40;;;;;;;7.28;3.97;;;;;;;34.59;30.32;98762.69;4501376;31;34044;-81
2022/08/17 07:49:09;;;;;;;11.00;3.78;;;;;;;35.58;29.21;98755.06;4501208;31;35218;-81
2022/08/17 07:51:46;;;;;;;5.93;3.80;;;;;;;35.62;30.01;98756.34;4501177;31;34425;-82
2022/08/17 07:54:21;;;;;;;6.40;4.28;;;;;;;36.84;27.21;98764.47;4501275;31;33890;-82
2022/08/17 07:57:01;;;;;;;8.55;4.18;;;;;;;37.06;26.93;98762.50;4493957;31;35765;-81
2022/08/17 07:59:33;;;;;;;6.90;3.50;;;;;;;37.36;26.19;98768.47;4485288;32;34498;-80
2022/08/17 08:02:25;;;;;;;5.50;3.40;;;;;;;36.91;26.57;98770.78;4485374;32;33302;-81
2022/08/17 08:05:03;;;;;;;5.07;3.42;;;;;;;36.22;27.36;98769.66;4485438;32;33918;-83
2022/08/17 08:07:56;;;;;;;5.75;3.55;;;;;;;36.48;27.67;98766.31;4484554;32;35286;-81
2022/08/17 08:10:36;;;;;;;7.55;3.70;;;;;;;36.61;27.26;98760.97;4471398;32;35037;-82
2022/08/17 08:13:22;;;;;;;9.65;4.50;;;;;;;36.98;26.43;98761.63;4472749;31;32583;-81
2022/08/17 08:15:56;;;;;;;7.57;4.00;;;;;;;35.96;27.80;98768.38;4482399;31;34003;-79
2022/08/17 08:18:42;;;;;;;5.90;4.03;;;;;;;36.28;27.95;98766.16;4483831;32;34968;-83
2022/08/17 08:21:46;;;;;;;8.73;3.78;;;;;;;36.13;27.01;98758.09;4483896;32;34328;-84
2022/08/17 08:24:35;;;;;;;9.18;3.90;;;;;;;36.18;27.69;98765.63;4471064;32;33948;-83
2022/08/17 08:27:14;;;;;;;10.98;4.57;;;;;;;36.47;27.72;98775.47;4485008;32;34029;-83
2022/08/17 08:30:08;;;;;;;10.95;4.78;;;;;;;36.47;26.63;98771.94;4485106;31;34956;-83
2022/08/17 08:33:02;;;;;;;7.80;3.60;;;;;;;36.47;26.36;98761.09;4484827;32;34407;-82
2022/08/17 08:35:52;;;;;;;5.32;3.22;;;;;;;36.70;25.76;98763.56;4484919;32;34277;-88
2022/08/17 08:38:35;;;;;;;6.95;3.72;;;;;;;37.44;25.16;98762.03;4484808;32;33879;-83
2022/08/17 08:41:37;;;;;;;6.10;3.85;;;;;;;37.88;25.23;98768.84;4499091;31;35114;-83
2022/08/17 08:44:30;;;;;;;5.55;3.20;;;;;;;37.40;25.25;98758.91;4499955;31;34452;-82
2022/08/17 08:47:52;;;;;;;5.47;3.75;;;;;;;37.36;25.54;98763.91;4497717;31;34317;-80
2022/08/17 08:50:46;;;;;;;5.60;3.25;;;;;;;37.73;24.77;98763.59;4495411;31;34761;-83
2022/08/17 08:53:31;;;;;;;5.10;3.10;;;;;;;37.69;24.52;98763.16;4499282;31;35154;-81
2022/08/17 08:56:06;;;;;;;5.45;3.20;;;;;;;38.23;21.70;98769.53;4500507;31;34601;-83
2022/08/17 08:59:00;;;;;;;4.80;3.12;;;;;;;38.48;21.59;98766.16;4498718;31;34286;-83
2022/08/17 09:01:46;;;;;;;4.78;3.22;;;;;;;38.37;21.90;98758.63;4499567;31;33954;-83
2022/08/17 09:04:36;;;;;;;8.55;3.28;;;;;;;38.05;23.61;98766.53;4498072;31;35020;-83
2022/08/17 09:07:51;;;;;;;5.03;3.15;;;;;;;38.20;22.98;98760.94;4487178;31;34232;-83
2022/08/17 09:11:05;;;;;;;9.38;3.47;;;;;;;38.41;23.16;98759.88;4489157;31;32686;-82
2022/08/17 09:14:08;;;;;;;4.47;3.28;;;;;;;38.37;22.51;98764.06;4501533;31;34060;-83
2022/08/17 09:16:54;;;;;;;6.62;4.28;;;;;;;37.93;23.19;98758.19;4467288;31;35668;-85
2022/08/17 09:19:50;;;;;;;5.57;2.90;;;;;;;38.27;23.16;98757.16;4502625;31;35231;-82
2022/08/17 09:22:34;;;;;;;5.43;3.60;;;;;;;37.78;23.80;98769.25;4500084;31;33315;-85
2022/08/17 09:25:09;;;;;;;4.78;3.45;;;;;;;37.77;24.02;98770.31;4500509;31;33922;-83
2022/08/17 09:27:49;;;;;;;8.70;3.30;;;;;;;38.75;23.41;98760.69;4500039;31;34914;-86
2022/08/17 09:30:19;;;;;;;6.03;3.10;;;;;;;38.36;22.71;98765.13;4484737;32;35423;-85
2022/08/17 09:32:54;;;;;;;6.15;3.60;;;;;;;38.74;21.96;98761.72;4493722;31;33931;-81
2022/08/17 09:35:29;;;;;;;6.35;3.35;;;;;;;38.35;22.75;98761.56;4501348;31;34035;-82
2022/08/17 09:38:12;;;;;;;8.07;3.33;;;;;;;37.14;23.93;98760.44;4501469;31;35758;-82
2022/08/17 09:41:18;;;;;;;5.22;2.95;;;;;;;37.71;22.92;98766.50;4501207;31;32875;-81
2022/08/17 09:44:01;;;;;;;4.07;2.92;;;;;;;38.26;22.42;98766.37;4501272;31;33629;-83
2022/08/17 09:46:35;;;;;;;5.20;3.08;;;;;;;37.92;23.00;98753.78;4485441;31;33509;-81
2022/08/17 09:49:52;;;;;;;13.10;3.83;;;;;;;38.79;21.98;98756.47;4486620;32;34873;-82
2022/08/17 09:52:25;;;;;;;4.97;3.28;;;;;;;37.74;23.25;98755.22;4492044;31;34225;-83
2022/08/17 09:54:55;;;;;;;7.28;3.25;;;;;;;38.65;22.11;98759.25;4502448;31;33409;-82
2022/08/17 09:57:42;;;;;;;6.68;3.22;;;;;;;37.77;22.91;98764.88;4499841;31;34074;-82
2022/08/17 10:00:16;;;;;;;4.95;3.17;;;;;;;36.46;23.39;98748.56;4502147;31;35143;-83
2022/08/17 10:03:08;;;;;;;7.80;3.72;;;;;;;37.65;22.82;98761.09;4497697;31;33952;-83
2022/08/17 10:05:50;;;;;;;4.90;3.10;;;;;;;38.46;22.42;98762.81;4501085;31;33454;-82
2022/08/17 10:08:51;;;;;;;5.45;3.30;;;;;;;38.51;22.08;98765.75;4501312;31;34031;-82
2022/08/17 10:12:14;;;;;;;4.32;2.65;;;;;;;39.28;21.27;98760.50;4501135;31;35872;-83
2022/08/17 10:14:31;;;;;;;4.47;3.33;;;;;;;39.02;21.31;98762.31;4501315;31;34144;-83
2022/08/17 10:17:35;;;;;;;4.78;3.37;;;;;;;39.12;21.41;98761.00;4488787;31;34261;-83
2022/08/17 10:20:17;;;;;;;4.43;3.20;;;;;;;39.28;20.70;98760.50;4500218;31;34705;-83
2022/08/17 10:26:14;;;;;;;5.40;3.28;;;;;;;39.95;20.37;98760.16;4501137;31;35132;-83
2022/08/17 10:28:48;;;;;;;5.15;2.80;;;;;;;39.08;21.14;98754.34;4499562;31;34215;-83
2022/08/17 10:31:24;;;;;;;4.35;2.95;;;;;;;39.62;20.57;98751.13;4494288;31;34353;-83
2022/08/17 10:34:41;;;;;;;5.72;3.20;;;;;;;38.98;21.41;98743.84;4485165;32;35015;-82
2022/08/17 10:37:18;;;;;;;4.55;3.20;;;;;;;39.14;21.22;98750.72;4501190;31;34515;-83
2022/08/17 10:40:06;;;;;;;4.50;3.10;;;;;;;39.38;20.99;98760.88;4502057;31;34527;-82
2022/08/17 10:42:42;;;;;;;4.28;3.15;;;;;;;39.49;21.43;98751.22;4502072;31;34858;-83
2022/08/17 10:45:28;;;;;;;4.40;3.15;;;;;;;39.52;20.34;98739.88;4492156;31;35174;-83
2022/08/17 10:48:05;;;;;;;4.47;2.78;;;;;;;38.96;21.29;98741.34;4492061;31;34421;-84
2022/08/17 10:51:02;;;;;;;3.55;2.65;;;;;;;38.39;22.59;98742.94;4501137;31;33609;-83
2022/08/17 10:53:30;;;;;;;4.20;3.05;;;;;;;39.94;19.88;98737.50;4464100;31;34675;-83
2022/08/17 10:56:10;;;;;;;3.70;2.72;;;;;;;38.93;20.66;98743.66;4484909;32;35928;-82
2022/08/17 10:58:54;;;;;;;5.75;3.22;;;;;;;39.28;20.99;98732.44;4498092;31;34511;-81
2022/08/17 11:01:28;;;;;;;4.85;2.90;;;;;;;39.03;20.45;98736.75;4500675;31;34053;-83
2022/08/17 11:04:16;;;;;;;4.82;2.80;;;;;;;39.94;20.55;98725.75;4500406;31;34042;-82
2022/08/17 11:07:01;;;;;;;4.62;2.97;;;;;;;40.55;20.02;98735.91;4501816;31;34904;-82
2022/08/17 11:09:38;;;;;;;5.60;3.20;;;;;;;40.69;19.91;98730.31;4485213;32;33802;-82
2022/08/17 11:12:18;;;;;;;5.25;3.50;;;;;;;41.03;19.64;98730.78;4486298;31;33450;-82
2022/08/17 11:15:14;;;;;;;3.95;2.80;;;;;;;40.84;20.15;98727.22;4489319;31;33979;-83
2022/08/17 11:18:04;;;;;;;5.37;3.60;;;;;;;39.68;21.04;98727.63;4489730;31;35351;-82
2022/08/17 11:20:40;;;;;;;3.67;2.55;;;;;;;40.32;19.80;98722.06;4500990;31;35343;-83
2022/08/17 11:23:37;;;;;;;4.40;3.12;;;;;;;40.35;19.90;98730.63;4498318;31;34264;-83
2022/08/17 11:26:20;;;;;;;5.03;3.17;;;;;;;39.94;20.70;98725.75;4501645;31;33948;-83
2022/08/17 11:28:49;;;;;;;5.47;3.17;;;;;;;40.60;20.01;98721.59;4488577;31;35057;-83
2022/08/17 11:31:43;;;;;;;6.15;3.20;;;;;;;39.48;21.18;98721.44;4484715;32;34009;-83
2022/08/17 11:34:22;;;;;;;4.40;3.08;;;;;;;38.85;21.70;98717.53;4484749;31;34326;-84
2022/08/17 11:37:28;;;;;;;6.70;3.22;;;;;;;39.78;20.64;98708.88;4500533;31;34435;-84
2022/08/17 11:40:16;;;;;;;4.32;3.05;;;;;;;38.54;21.36;98707.34;4484790;32;34966;-86
2022/08/17 11:42:50;;;;;;;4.45;2.78;;;;;;;37.15;23.38;98713.25;4490074;31;35273;-84
2022/08/17 11:45:45;;;;;;;4.93;3.30;;;;;;;37.76;22.43;98714.28;4501470;31;33348;-84
2022/08/17 11:51:59;;;;;;;4.93;2.70;;;;;;;37.35;23.36;98696.22;4485657;32;34882;-83
2022/08/17 11:54:47;;;;;;;5.22;2.47;;;;;;;39.06;21.06;98692.75;4499299;31;34518;-84
2022/08/17 11:57:41;;;;;;;4.90;3.47;;;;;;;39.09;21.29;98693.38;4500412;31;34399;-84
2022/08/17 12:00:43;;;;;;;5.25;3.08;;;;;;;39.57;19.96;98695.59;4494734;31;33895;-83
2022/08/17 12:03:42;;;;;;;7.90;3.67;;;;;;;39.55;20.25;98684.09;4499442;31;35084;-83
2022/08/17 12:06:26;;;;;;;4.47;2.80;;;;;;;39.91;19.52;98688.84;4489178;31;35059;-83
2022/08/17 12:09:11;;;;;;;;;;;;;;;39.79;19.60;98685.19;4496120;31;33407;-83
2022/08/17 12:12:12;;;;;;;4.30;2.90;;;;;;;39.53;19.30;98681.59;4499957;31;34259;-83
2022/08/17 12:14:57;;;;;;;4.72;2.35;;;;;;;39.77;18.57;98681.84;4485359;32;35084;-83
2022/08/17 12:17:37;;;;;;;8.88;2.60;;;;;;;40.23;18.40;98674.31;4487970;31;34521;-83
2022/08/17 12:20:21;;;;;;;4.37;2.20;;;;;;;40.05;18.00;98680.59;4501231;31;33568;-83
2022/08/17 12:23:03;;;;;;;3.25;2.30;;;;;;;39.35;17.94;98679.59;4497363;31;34688;-83
2022/08/17 12:25:41;;;;;;;4.20;2.50;;;;;;;38.83;18.82;98667.91;4501829;31;35963;-82
2022/08/17 12:28:21;;;;;;;3.97;2.70;;;;;;;38.83;19.10;98684.25;4502075;31;35108;-83
2022/08/17 12:30:51;;;;;;;4.53;2.55;;;;;;;39.88;18.22;98675.66;4503055;31;34373;-83
2022/08/17 12:33:22;;;;;;;4.05;2.80;;;;;;;39.16;19.03;98680.53;4502584;31;34741;-83
2022/08/17 12:36:04;;;;;;;4.53;2.22;;;;;;;38.63;19.37;98687.88;4501747;31;35837;-84
2022/08/17 12:38:34;;;;;;;11.35;2.75;;;;;;;39.65;18.37;98676.25;4498812;31;35061;-83
2022/08/17 12:41:25;;;;;;;3.65;2.53;;;;;;;39.56;18.62;98670.25;4500525;31;33560;-83
2022/08/17 12:44:15;;;;;;;5.72;2.53;;;;;;;38.92;18.77;98663.88;4501256;31;34713;-82
2022/08/17 12:46:54;;;;;;;4.82;2.25;;;;;;;39.27;18.50;98668.97;4501730;31;35058;-83
2022/08/17 12:49:25;;;;;;;6.45;2.60;;;;;;;38.71;18.64;98669.66;4499922;31;35221;-83
2022/08/17 12:52:04;;;;;;;4.22;2.25;;;;;;;38.74;18.59;98674.63;4502884;31;33431;-86